Un Akdeniz — TCTD2 — position and weather

sailwx.info

Track history (hours):
 
Tides and Currents Weather Stations Pressure Air Temp Water Temp Dewpoint Dewpoint Depression Visibility Wind Speed Wind Dir Waves Ship Positions

Un Akdeniz

Last reported at 2016-Sep-29 00:33 UTC. Time now 2016-Sep-29 20:20 UTC.
Position N 44°18' E 013°52'.

Length 192 m; draft 6.9 m.

Type: Ship (hazmat cat A). MMSI: 271002572.

Date/timePositionNaut miles runAvg speedWind from/ knotsBaromVisibWave heightAir tempDewpointWater temp
2016-Sep-29 00:33N 44°18' E 013°52'5919.6
2016-Sep-28 21:33N 45°07' E 013°08'3216.3
2016-Sep-28 19:33N 45°36' E 013°29'12 3.8
2016-Sep-28 16:30N 45°39' E 013°45'0 0.0
2016-Sep-28 15:29N 45°39' E 013°45'0 0.0
2016-Sep-28 12:31N 45°39' E 013°45'0 0.0
2016-Sep-28 08:32N 45°39' E 013°45'0 0.0
2016-Sep-28 03:33N 45°39' E 013°45'0 0.0
2016-Sep-28 02:27N 45°39' E 013°45'0 0.0
2016-Sep-28 01:29N 45°39' E 013°45'0 0.0
2016-Sep-27 23:25N 45°39' E 013°45'0 0.0
2016-Sep-27 19:33N 45°39' E 013°45'5811.6
2016-Sep-27 14:33N 44°49' E 013°03'2020.3
2016-Sep-27 13:33N 44°29' E 013°10'64614.7
2016-Sep-25 17:34N 37°49' E 024°24'29017.0
2016-Sep-25 00:32N 40°51' E 029°16'0 0.0
2016-Sep-24 22:32N 40°51' E 029°16'0 0.0
2016-Sep-24 21:33N 40°51' E 029°16'0 0.0
2016-Sep-24 19:33N 40°51' E 029°16'0 0.0
2016-Sep-24 18:33N 40°51' E 029°16'0 0.0
2016-Sep-24 17:33N 40°51' E 029°16'0 0.0
2016-Sep-24 16:32N 40°51' E 029°16'0 0.0
2016-Sep-24 14:33N 40°51' E 029°16'0 0.0
2016-Sep-24 12:33N 40°51' E 029°16'0 0.0
2016-Sep-24 10:33N 40°51' E 029°16'0 0.0
2016-Sep-24 09:32N 40°51' E 029°16'26815.5
2016-Sep-23 16:12N 38°05' E 024°43'1319.1
2016-Sep-23 15:33N 37°54' E 024°37'62316.0
2016-Sep-22 00:33N 44°22' E 013°49'2019.7
2016-Sep-21 23:33N 44°39' E 013°34'1919.4
2016-Sep-21 22:33N 44°55' E 013°19'4515.0
2016-Sep-21 19:33N 45°38' E 013°35'7 2.3
2016-Sep-21 16:29N 45°39' E 013°45'0 0.0
2016-Sep-21 09:29N 45°39' E 013°45'0 0.0
2016-Sep-21 08:29N 45°39' E 013°45'0 0.0
2016-Sep-21 05:33N 45°39' E 013°45'0 0.0
2016-Sep-21 03:33N 45°39' E 013°45'0 0.0
2016-Sep-21 02:29N 45°39' E 013°45'0 0.0
2016-Sep-20 17:31N 45°39' E 013°45'3511.7
2016-Sep-20 14:33N 45°13' E 013°12'2020.3
2016-Sep-20 13:33N 44°53' E 013°05'  
Track history (hours):
 
Tides and Currents Weather Stations Pressure Air Temp Water Temp Dewpoint Dewpoint Depression Visibility Wind Speed Wind Dir Waves Ship Positions

Un Akdeniz

Last reported at 2016-Sep-29 00:33 UTC. Time now 2016-Sep-29 20:20 UTC.
Position N 44°18' E 013°52'.

Length 192 m; draft 6.9 m.

Type: Ship (hazmat cat A). MMSI: 271002572.

Date/timePositionNaut miles runAvg speedWind from/ knotsBaromVisibWave heightAir tempDewpointWater temp
2016-Sep-29 00:33N 44°18' E 013°52'5919.6
2016-Sep-28 21:33N 45°07' E 013°08'3216.3
2016-Sep-28 19:33N 45°36' E 013°29'12 3.8
2016-Sep-28 16:30N 45°39' E 013°45'0 0.0
2016-Sep-28 15:29N 45°39' E 013°45'0 0.0
2016-Sep-28 12:31N 45°39' E 013°45'0 0.0
2016-Sep-28 08:32N 45°39' E 013°45'0 0.0
2016-Sep-28 03:33N 45°39' E 013°45'0 0.0
2016-Sep-28 02:27N 45°39' E 013°45'0 0.0
2016-Sep-28 01:29N 45°39' E 013°45'0 0.0
2016-Sep-27 23:25N 45°39' E 013°45'0 0.0
2016-Sep-27 19:33N 45°39' E 013°45'5811.6
2016-Sep-27 14:33N 44°49' E 013°03'2020.3
2016-Sep-27 13:33N 44°29' E 013°10'64614.7
2016-Sep-25 17:34N 37°49' E 024°24'29017.0
2016-Sep-25 00:32N 40°51' E 029°16'0 0.0
2016-Sep-24 22:32N 40°51' E 029°16'0 0.0
2016-Sep-24 21:33N 40°51' E 029°16'0 0.0
2016-Sep-24 19:33N 40°51' E 029°16'0 0.0
2016-Sep-24 18:33N 40°51' E 029°16'0 0.0
2016-Sep-24 17:33N 40°51' E 029°16'0 0.0
2016-Sep-24 16:32N 40°51' E 029°16'0 0.0
2016-Sep-24 14:33N 40°51' E 029°16'0 0.0
2016-Sep-24 12:33N 40°51' E 029°16'0 0.0
2016-Sep-24 10:33N 40°51' E 029°16'0 0.0
2016-Sep-24 09:32N 40°51' E 029°16'26815.5
2016-Sep-23 16:12N 38°05' E 024°43'1319.1
2016-Sep-23 15:33N 37°54' E 024°37'62316.0
2016-Sep-22 00:33N 44°22' E 013°49'2019.7
2016-Sep-21 23:33N 44°39' E 013°34'1919.4
2016-Sep-21 22:33N 44°55' E 013°19'4515.0
2016-Sep-21 19:33N 45°38' E 013°35'7 2.3
2016-Sep-21 16:29N 45°39' E 013°45'0 0.0
2016-Sep-21 09:29N 45°39' E 013°45'0 0.0
2016-Sep-21 08:29N 45°39' E 013°45'0 0.0
2016-Sep-21 05:33N 45°39' E 013°45'0 0.0
2016-Sep-21 03:33N 45°39' E 013°45'0 0.0
2016-Sep-21 02:29N 45°39' E 013°45'0 0.0
2016-Sep-20 17:31N 45°39' E 013°45'3511.7
2016-Sep-20 14:33N 45°13' E 013°12'2020.3
2016-Sep-20 13:33N 44°53' E 013°05'  

Dump ship's entire track history